Time;durP1;ratioP1;P1;durP2;ratioP2;P2;SDS_P1;SDS_P2;PMS_P1;PMS_P2;Temp;Humidity;BMP_temperature;BMP_pressure;BME280_temperature;BME280_humidity;BME280_pressure;Samples;Min_cycle;Max_cycle;Signal;HPM_P1;HPM_P2
2022/03/25 00:01:38;;;;;;;20.77;10.63;;;-1.80;99.90;;;;;;8406779;28;20362;-60
2022/03/25 00:05:39;;;;;;;20.47;11.50;;;-1.90;1.00;;;;;;8419358;28;20255;-61
2022/03/25 00:09:39;;;;;;;17.60;9.77;;;-1.90;1.00;;;;;;8434829;28;20210;-63
2022/03/25 00:13:40;;;;;;;20.13;10.97;;;-2.00;99.90;;;;;;8426080;28;20203;-61
2022/03/25 00:17:41;;;;;;;18.13;10.30;;;-2.00;99.90;;;;;;8406088;28;20208;-60
2022/03/25 00:21:42;;;;;;;19.23;10.33;;;-2.00;1.00;;;;;;8428019;28;20214;-61
2022/03/25 00:25:43;;;;;;;23.70;11.13;;;-2.00;1.00;;;;;;8418881;28;20294;-60
2022/03/25 00:29:44;;;;;;;20.87;11.27;;;-2.10;1.00;;;;;;8411566;28;20507;-60
2022/03/25 00:33:49;;;;;;;21.60;11.40;;;-2.10;99.90;;;;;;8431324;28;20237;-67
2022/03/25 00:37:49;;;;;;;20.67;11.60;;;-2.10;99.90;;;;;;8433513;28;20245;-60
2022/03/25 00:41:50;;;;;;;21.93;11.20;;;-2.10;99.90;;;;;;8429727;28;20204;-63
2022/03/25 00:45:51;;;;;;;21.53;12.40;;;-2.20;1.00;;;;;;8408967;28;20310;-61
2022/03/25 00:49:52;;;;;;;23.27;12.30;;;-2.20;99.90;;;;;;8427267;28;20203;-58
2022/03/25 00:53:53;;;;;;;27.13;12.67;;;-2.20;99.90;;;;;;8448570;28;20194;-59
2022/03/25 00:57:53;;;;;;;27.30;13.50;;;-2.20;99.90;;;;;;8406496;28;20215;-60
2022/03/25 01:01:54;;;;;;;21.33;12.27;;;-2.20;99.90;;;;;;8429744;28;20250;-60
2022/03/25 01:05:55;;;;;;;25.13;12.63;;;-2.30;99.90;;;;;;8403203;28;20234;-60
2022/03/25 01:09:56;;;;;;;26.20;12.40;;;-2.30;1.00;;;;;;8406251;28;20203;-62
2022/03/25 01:13:58;;;;;;;24.33;13.13;;;-2.40;99.90;;;;;;8414107;28;20203;-60
2022/03/25 01:17:59;;;;;;;24.93;12.43;;;-2.40;99.90;;;;;;8418275;28;20330;-59
2022/03/25 01:22:01;;;;;;;25.23;12.47;;;-2.50;1.00;;;;;;8424679;28;20214;-60
2022/03/25 01:26:03;;;;;;;25.63;12.43;;;-2.60;43.30;;;;;;8426400;28;20264;-60
2022/03/25 01:30:05;;;;;;;25.20;13.00;;;-2.70;99.90;;;;;;8425844;28;20200;-60
2022/03/25 01:34:06;;;;;;;27.13;13.50;;;-2.80;99.90;;;;;;8409249;28;20505;-60
2022/03/25 01:38:07;;;;;;;27.87;13.70;;;-2.80;99.90;;;;;;8401014;28;20207;-60
2022/03/25 01:42:08;;;;;;;30.90;15.00;;;-2.90;99.90;;;;;;8418155;28;20293;-59
2022/03/25 01:46:09;;;;;;;25.80;13.17;;;-2.80;1.00;;;;;;8425372;28;20245;-58
2022/03/25 01:50:19;;;;;;;28.30;14.23;;;-2.80;1.00;;;;;;8423264;28;20290;-60
2022/03/25 01:54:29;;;;;;;28.23;14.13;;;-2.80;1.00;;;;;;8420276;28;20204;-60
2022/03/25 01:58:31;;;;;;;26.70;12.97;;;-2.80;1.00;;;;;;8428941;28;20203;-61
2022/03/25 02:02:32;;;;;;;29.83;14.20;;;-2.80;1.00;;;;;;8417565;28;20296;-59
2022/03/25 02:06:34;;;;;;;26.33;14.30;;;-2.90;1.00;;;;;;8411684;28;20223;-61
2022/03/25 02:10:35;;;;;;;35.03;15.03;;;-2.90;71.30;;;;;;8401728;28;20209;-60
2022/03/25 02:14:36;;;;;;;33.20;14.80;;;-2.80;99.90;;;;;;8411653;28;20326;-59
2022/03/25 02:18:37;;;;;;;30.37;15.40;;;-2.80;99.90;;;;;;8452638;28;20214;-60
2022/03/25 02:22:39;;;;;;;31.33;15.57;;;-2.90;99.90;;;;;;8432667;28;20208;-69
2022/03/25 02:26:40;;;;;;;29.33;14.80;;;-2.90;99.90;;;;;;8410320;28;20219;-60
2022/03/25 02:30:43;;;;;;;31.03;13.97;;;-3.00;99.90;;;;;;8409987;28;20198;-59
2022/03/25 02:34:44;;;;;;;27.53;14.53;;;-3.10;99.90;;;;;;8403742;28;20535;-59
2022/03/25 02:38:44;;;;;;;25.60;13.53;;;-3.20;99.90;;;;;;8444324;28;20210;-59
2022/03/25 02:42:45;;;;;;;26.63;13.93;;;-3.30;99.90;;;;;;8429157;28;20210;-60
2022/03/25 02:46:46;;;;;;;27.30;13.10;;;-3.40;99.90;;;;;;8411138;28;20278;-61
2022/03/25 02:50:47;;;;;;;28.30;14.43;;;-3.40;99.90;;;;;;8420360;28;20285;-61
2022/03/25 02:54:48;;;;;;;31.13;14.33;;;-3.40;99.90;;;;;;8426308;28;20225;-59
2022/03/25 02:58:49;;;;;;;31.60;16.33;;;-3.40;99.90;;;;;;8424741;28;20202;-60
2022/03/25 03:02:50;;;;;;;30.77;16.67;;;-3.40;99.90;;;;;;8407503;28;20647;-60
2022/03/25 03:06:50;;;;;;;33.63;16.83;;;-3.40;99.90;;;;;;8408228;28;20235;-61
2022/03/25 03:10:51;;;;;;;31.90;15.50;;;-3.40;99.90;;;;;;8434478;28;20248;-60
2022/03/25 03:14:52;;;;;;;34.60;16.43;;;-3.40;99.90;;;;;;8443821;28;20210;-62
2022/03/25 03:18:53;;;;;;;31.20;16.10;;;-3.40;99.90;;;;;;8399805;28;20208;-60
2022/03/25 03:22:56;;;;;;;30.13;16.57;;;-3.40;99.90;;;;;;8419084;28;20197;-59
2022/03/25 03:26:58;;;;;;;29.63;15.50;;;-3.40;99.90;;;;;;8411306;28;20222;-60
2022/03/25 03:30:59;;;;;;;36.17;17.27;;;-3.40;99.90;;;;;;8407103;28;20210;-62
2022/03/25 03:35:00;;;;;;;33.50;16.80;;;-3.50;99.90;;;;;;8424976;28;20208;-60
2022/03/25 03:39:01;;;;;;;35.37;16.80;;;-3.50;99.90;;;;;;8416503;28;20243;-59
2022/03/25 03:43:03;;;;;;;38.70;19.27;;;-3.50;99.90;;;;;;8433180;28;20217;-69
2022/03/25 03:47:06;;;;;;;39.13;19.20;;;-3.50;99.90;;;;;;8417229;28;20284;-61
2022/03/25 03:51:06;;;;;;;46.43;21.37;;;-3.50;99.90;;;;;;8426140;28;20206;-60
2022/03/25 03:55:08;;;;;;;50.23;21.53;;;-3.50;99.90;;;;;;8403117;28;20207;-61
2022/03/25 03:59:09;;;;;;;49.70;22.73;;;-3.50;99.90;;;;;;8405025;28;20240;-62
2022/03/25 04:03:10;;;;;;;48.23;20.87;;;-3.50;99.90;;;;;;8425340;28;20304;-59
2022/03/25 04:07:11;;;;;;;53.33;23.30;;;-3.50;99.90;;;;;;8405833;28;20218;-60
2022/03/25 04:11:12;;;;;;;47.87;21.33;;;-3.50;99.90;;;;;;8451193;28;20222;-59
2022/03/25 04:15:15;;;;;;;41.07;20.17;;;-3.50;99.90;;;;;;8432620;28;20213;-59
2022/03/25 04:19:16;;;;;;;46.80;21.57;;;-3.50;99.90;;;;;;8409379;28;20204;-61
2022/03/25 04:23:17;;;;;;;42.90;18.97;;;-3.50;99.90;;;;;;8399155;28;20217;-59
2022/03/25 04:27:18;;;;;;;39.07;19.73;;;-3.50;99.90;;;;;;8422804;28;20210;-61
2022/03/25 04:31:19;;;;;;;42.27;21.27;;;-3.60;99.90;;;;;;8406811;28;20201;-62
2022/03/25 04:35:22;;;;;;;37.20;19.13;;;-3.60;99.90;;;;;;8404366;28;20197;-60
2022/03/25 04:39:23;;;;;;;36.20;20.27;;;-3.60;99.90;;;;;;8427064;28;20205;-61
2022/03/25 04:43:24;;;;;;;43.30;21.10;;;-3.70;99.90;;;;;;8405918;28;20206;-61
2022/03/25 04:47:24;;;;;;;47.90;22.03;;;-3.70;99.90;;;;;;8401178;28;20212;-59
2022/03/25 04:51:25;;;;;;;47.20;23.00;;;-3.70;99.90;;;;;;8400756;28;20504;-60
2022/03/25 04:55:26;;;;;;;57.17;27.90;;;-3.60;99.90;;;;;;8398053;28;20305;-60
2022/03/25 04:59:27;;;;;;;57.10;24.47;;;-3.40;99.90;;;;;;8417974;28;20210;-60
2022/03/25 05:03:28;;;;;;;52.70;23.07;;;-3.40;99.90;;;;;;8441865;28;20220;-62
2022/03/25 05:07:29;;;;;;;52.83;24.60;;;-3.40;99.90;;;;;;8398054;28;20301;-61
2022/03/25 05:11:29;;;;;;;52.53;25.17;;;-3.40;99.90;;;;;;8431263;28;20283;-59
2022/03/25 05:15:30;;;;;;;44.87;23.03;;;-3.40;99.90;;;;;;8416518;28;20206;-60
2022/03/25 05:19:32;;;;;;;46.10;22.67;;;-3.40;99.90;;;;;;8422836;28;20201;-62
2022/03/25 05:23:33;;;;;;;46.17;23.33;;;-3.30;99.90;;;;;;8430556;28;20314;-59
2022/03/25 05:27:57;;;;;;;49.97;23.83;;;-3.20;99.90;;;;;;8422912;28;20268;-61
2022/03/25 05:31:58;;;;;;;51.37;23.33;;;-3.10;99.90;;;;;;8423613;28;20491;-61
2022/03/25 05:36:00;;;;;;;52.27;25.10;;;-2.90;99.90;;;;;;8405560;28;20214;-60
2022/03/25 05:40:01;;;;;;;46.37;23.43;;;-2.70;99.90;;;;;;8424910;28;20268;-62
2022/03/25 05:44:02;;;;;;;51.97;25.40;;;-2.50;99.90;;;;;;8420262;28;20211;-60
2022/03/25 05:48:03;;;;;;;47.00;23.73;;;-2.30;99.90;;;;;;8422738;28;20230;-59
2022/03/25 05:52:05;;;;;;;56.13;27.53;;;-2.20;99.90;;;;;;8408313;28;20200;-62
2022/03/25 05:56:07;;;;;;;66.07;30.60;;;-1.90;99.90;;;;;;8405135;28;20208;-60
2022/03/25 06:00:09;;;;;;;65.97;31.43;;;-1.70;99.90;;;;;;8405435;28;20219;-59
2022/03/25 06:04:10;;;;;;;59.43;31.20;;;-1.50;99.90;;;;;;8395660;28;20322;-60
2022/03/25 06:08:11;;;;;;;63.70;31.50;;;-1.20;99.90;;;;;;8403843;28;20319;-60
2022/03/25 06:12:11;;;;;;;57.83;28.37;;;-0.90;99.90;;;;;;8411041;28;20257;-60
2022/03/25 06:16:12;;;;;;;68.13;28.27;;;-0.70;99.90;;;;;;8418530;28;20245;-59
2022/03/25 06:20:17;;;;;;;57.70;28.37;;;-0.50;99.90;;;;;;8398598;28;20285;-61
2022/03/25 06:24:18;;;;;;;57.47;28.33;;;-0.20;99.90;;;;;;8415092;28;20212;-59
2022/03/25 06:28:22;;;;;;;54.63;29.83;;;0.00;99.90;;;;;;8415846;28;20203;-59
2022/03/25 06:32:23;;;;;;;62.57;30.27;;;0.30;99.90;;;;;;8422157;28;20222;-60
2022/03/25 06:36:24;;;;;;;62.57;31.23;;;0.60;99.90;;;;;;8422116;28;20193;-59
2022/03/25 06:40:25;;;;;;;56.83;30.63;;;0.90;99.90;;;;;;8428999;28;20223;-60
2022/03/25 06:44:26;;;;;;;54.50;28.23;;;1.30;99.90;;;;;;8427883;28;20256;-59
2022/03/25 06:48:27;;;;;;;56.33;30.47;;;1.70;99.90;;;;;;8419895;28;20203;-60
2022/03/25 06:52:28;;;;;;;56.83;30.87;;;2.10;99.90;;;;;;8425934;28;20215;-69
2022/03/25 06:56:32;;;;;;;55.70;29.60;;;2.50;1.00;;;;;;8413083;28;20317;-59
2022/03/25 07:00:34;;;;;;;53.63;29.70;;;2.90;99.90;;;;;;8422640;28;20212;-59
2022/03/25 07:04:36;;;;;;;51.17;27.53;;;3.30;99.90;;;;;;8427065;28;20224;-59
2022/03/25 07:08:39;;;;;;;50.53;27.13;;;3.70;1.00;;;;;;8425767;28;20196;-60
2022/03/25 07:12:41;;;;;;;46.20;25.33;;;3.90;99.90;;;;;;8401275;28;20234;-60
2022/03/25 07:16:43;;;;;;;50.50;27.47;;;4.20;1.00;;;;;;8427545;28;20192;-59
2022/03/25 07:20:44;;;;;;;47.13;26.03;;;4.50;12.20;;;;;;8409913;28;20197;-59
2022/03/25 07:24:45;;;;;;;50.70;27.30;;;4.80;1.00;;;;;;8419610;28;20216;-62
2022/03/25 07:28:47;;;;;;;46.70;25.47;;;5.10;99.90;;;;;;8435339;28;20274;-62
2022/03/25 07:32:47;;;;;;;46.20;26.90;;;5.40;1.00;;;;;;8421781;28;20272;-61
2022/03/25 07:36:48;;;;;;;51.67;27.40;;;5.70;99.90;;;;;;8415933;28;20208;-62
2022/03/25 07:40:49;;;;;;;46.90;26.00;;;5.90;1.00;;;;;;8408402;28;20214;-59
2022/03/25 07:44:50;;;;;;;51.67;26.13;;;6.10;99.90;;;;;;8430019;28;20251;-60
2022/03/25 07:48:51;;;;;;;50.73;26.43;;;6.30;99.90;;;;;;8408558;28;20222;-62
2022/03/25 07:52:53;;;;;;;47.50;25.37;;;6.50;99.90;;;;;;8447456;28;20206;-60
2022/03/25 07:56:57;;;;;;;43.47;25.23;;;6.60;58.60;;;;;;8408886;28;20295;-60
2022/03/25 08:00:58;;;;;;;50.57;25.17;;;6.80;18.30;;;;;;8429091;28;20202;-60
2022/03/25 08:04:59;;;;;;;43.57;24.63;;;7.00;1.00;;;;;;8431582;28;20210;-60
2022/03/25 08:09:01;;;;;;;44.27;23.87;;;7.20;1.00;;;;;;8409040;28;20203;-61
2022/03/25 08:13:02;;;;;;;42.30;23.23;;;7.50;1.00;;;;;;8407111;28;20215;-62
2022/03/25 08:17:03;;;;;;;38.23;20.77;;;7.70;99.90;;;;;;8417753;28;20259;-60
2022/03/25 08:21:05;;;;;;;32.93;19.93;;;7.90;99.90;;;;;;8400499;28;20219;-61
2022/03/25 08:29:25;;;;;;;35.60;20.10;;;8.40;1.00;;;;;;8433239;28;20215;-60
2022/03/25 08:33:27;;;;;;;37.53;20.30;;;8.50;1.00;;;;;;8399339;28;20204;-61
2022/03/25 08:37:28;;;;;;;32.10;19.27;;;8.80;1.00;;;;;;8415817;28;20203;-60
2022/03/25 08:41:28;;;;;;;32.53;17.87;;;8.90;1.00;;;;;;8431942;28;20203;-61
2022/03/25 08:45:30;;;;;;;33.40;18.30;;;9.20;99.90;;;;;;8436955;28;20222;-59
2022/03/25 08:49:32;;;;;;;27.17;17.10;;;9.40;99.90;;;;;;8416161;28;20259;-62
2022/03/25 08:53:33;;;;;;;26.93;16.73;;;9.70;99.90;;;;;;8432947;28;20207;-59
2022/03/25 08:57:34;;;;;;;30.50;16.80;;;9.90;99.90;;;;;;8404870;28;20214;-63
2022/03/25 09:01:35;;;;;;;30.20;17.73;;;10.00;99.90;;;;;;8431370;28;20219;-62
2022/03/25 09:05:36;;;;;;;28.90;16.57;;;10.30;99.90;;;;;;8416800;28;20306;-61
2022/03/25 09:09:37;;;;;;;26.27;15.50;;;10.60;99.90;;;;;;8398520;28;20204;-60
2022/03/25 09:13:39;;;;;;;28.23;15.40;;;10.80;99.90;;;;;;8407997;28;20200;-60
2022/03/25 09:17:45;;;;;;;27.10;15.73;;;11.20;99.90;;;;;;8426528;28;20203;-59
2022/03/25 09:21:46;;;;;;;24.67;14.70;;;11.30;99.90;;;;;;8417203;28;20208;-59
2022/03/25 09:25:46;;;;;;;27.77;15.20;;;11.40;99.90;;;;;;8419019;28;20327;-60
2022/03/25 09:29:47;;;;;;;27.73;15.07;;;11.50;99.90;;;;;;8413879;28;20295;-60
2022/03/25 09:33:48;;;;;;;24.77;13.70;;;11.50;99.90;;;;;;8430890;28;20200;-60
2022/03/25 09:37:50;;;;;;;27.13;15.80;;;11.70;99.90;;;;;;8434547;28;20226;-60
2022/03/25 09:41:52;;;;;;;23.27;13.90;;;12.00;99.90;;;;;;8432412;28;20208;-63
2022/03/25 09:45:53;;;;;;;24.93;13.27;;;12.10;99.90;;;;;;8405963;28;20246;-60
2022/03/25 09:49:53;;;;;;;22.97;13.60;;;12.40;99.90;;;;;;8406165;28;20206;-60
2022/03/25 09:53:58;;;;;;;24.17;13.07;;;12.70;99.90;;;;;;8397921;28;20199;-60
2022/03/25 09:57:59;;;;;;;23.17;13.50;;;12.70;71.10;;;;;;8418859;28;20263;-60
2022/03/25 10:02:00;;;;;;;21.30;12.30;;;12.90;50.70;;;;;;8405472;28;20294;-60
2022/03/25 10:06:01;;;;;;;22.17;12.13;;;13.10;34.90;;;;;;8411952;28;20226;-60
2022/03/25 10:10:08;;;;;;;21.53;12.80;;;13.30;36.10;;;;;;8396988;28;20222;-59
2022/03/25 10:14:14;;;;;;;17.83;10.03;;;13.60;41.20;;;;;;8416997;28;20204;-61
2022/03/25 10:18:18;;;;;;;23.20;12.07;;;13.40;1.00;;;;;;8437599;28;20261;-59
2022/03/25 10:22:20;;;;;;;18.10;11.03;;;13.60;1.00;;;;;;8434524;28;20470;-61
2022/03/25 10:26:35;;;;;;;19.50;11.40;;;13.80;1.00;;;;;;8430459;28;20226;-60
2022/03/25 10:30:41;;;;;;;16.27;7.50;;;14.00;1.00;;;;;;8438142;28;20199;-60
2022/03/25 10:34:43;;;;;;;16.07;9.30;;;14.00;1.00;;;;;;8431699;28;20203;-59
2022/03/25 10:38:47;;;;;;;18.03;9.07;;;14.20;1.00;;;;;;8446182;28;20199;-60
2022/03/25 10:43:07;;;;;;;14.60;9.10;;;14.40;1.00;;;;;;8430390;28;20295;-61
2022/03/25 10:47:24;;;;;;;13.40;7.57;;;14.30;1.00;;;;;;8429192;28;20308;-63
2022/03/25 10:51:25;;;;;;;15.47;8.57;;;14.50;1.00;;;;;;8436360;28;20409;-62
2022/03/25 10:55:26;;;;;;;14.80;8.27;;;14.10;1.00;;;;;;8420947;28;20204;-59
2022/03/25 10:59:28;;;;;;;13.83;7.07;;;14.10;1.00;;;;;;8429011;28;20229;-61
2022/03/25 11:03:30;;;;;;;12.07;7.30;;;14.40;1.00;;;;;;8411378;28;20196;-62
2022/03/25 11:07:31;;;;;;;12.53;7.03;;;14.40;1.00;;;;;;8411504;28;20205;-61
2022/03/25 11:11:32;;;;;;;12.03;7.67;;;14.30;1.00;;;;;;8436046;28;20290;-62
2022/03/25 11:15:34;;;;;;;13.20;7.33;;;14.30;1.00;;;;;;8421294;28;20200;-62
2022/03/25 11:19:37;;;;;;;13.63;7.97;;;14.50;1.00;;;;;;8424153;28;20569;-60
2022/03/25 11:23:49;;;;;;;14.10;7.00;;;14.50;1.00;;;;;;8401740;28;20211;-60
2022/03/25 11:27:56;;;;;;;13.93;7.63;;;14.50;1.00;;;;;;8407643;28;20580;-64
2022/03/25 11:32:03;;;;;;;10.53;6.40;;;14.70;1.00;;;;;;8427482;28;20241;-61
2022/03/25 11:36:14;;;;;;;10.37;5.93;;;14.80;1.00;;;;;;8436218;28;20199;-60
2022/03/25 11:40:15;;;;;;;10.17;6.67;;;15.10;1.00;;;;;;8450397;28;20207;-59
2022/03/25 11:44:15;;;;;;;12.30;6.27;;;15.20;1.00;;;;;;8441301;28;20211;-60
2022/03/25 11:48:16;;;;;;;13.43;7.03;;;15.20;1.00;;;;;;8415944;28;20205;-60
2022/03/25 11:52:23;;;;;;;14.40;7.83;;;15.00;1.00;;;;;;8444613;28;20203;-60
2022/03/25 11:56:24;;;;;;;15.83;8.07;;;15.10;1.00;;;;;;8430870;28;20200;-61
2022/03/25 12:00:28;;;;;;;13.27;7.70;;;15.30;1.00;;;;;;8407266;28;20220;-59
2022/03/25 12:04:34;;;;;;;17.27;9.63;;;15.10;1.00;;;;;;8415856;28;20510;-62
2022/03/25 12:08:36;;;;;;;18.90;9.73;;;15.20;36.60;;;;;;8414238;28;20635;-60
2022/03/25 12:12:54;;;;;;;17.83;10.13;;;15.10;8.60;;;;;;8427787;28;20265;-59
2022/03/25 12:16:56;;;;;;;14.10;8.03;;;15.20;10.00;;;;;;8421039;28;20196;-59
2022/03/25 12:20:57;;;;;;;20.27;10.90;;;14.90;1.00;;;;;;8400049;28;20204;-62
2022/03/25 12:25:06;;;;;;;20.57;10.57;;;14.80;26.40;;;;;;8425844;28;20219;-62
2022/03/25 12:29:08;;;;;;;20.00;11.10;;;14.80;17.10;;;;;;8405891;28;20223;-61
2022/03/25 12:33:09;;;;;;;21.00;12.00;;;15.10;20.30;;;;;;8405217;28;20260;-61
2022/03/25 12:37:13;;;;;;;22.63;12.17;;;15.20;31.40;;;;;;8416441;28;20207;-62
2022/03/25 12:41:28;;;;;;;23.77;11.23;;;15.20;31.70;;;;;;8421532;28;20208;-63
2022/03/25 12:45:31;;;;;;;19.17;12.53;;;15.20;38.50;;;;;;8408139;28;20227;-61
2022/03/25 12:49:33;;;;;;;17.73;11.87;;;15.20;40.70;;;;;;8424830;28;20199;-58
2022/03/25 12:53:34;;;;;;;20.00;11.90;;;15.20;42.20;;;;;;8418719;28;20204;-60
2022/03/25 12:57:37;;;;;;;19.33;11.37;;;15.20;39.00;;;;;;8425236;28;20212;-61
2022/03/25 13:01:45;;;;;;;20.97;11.73;;;15.20;16.50;;;;;;8428445;28;20200;-60
2022/03/25 13:05:46;;;;;;;23.43;11.43;;;15.10;15.20;;;;;;8420891;28;20220;-61
2022/03/25 13:09:54;;;;;;;17.23;11.30;;;15.20;54.90;;;;;;8417040;28;20378;-60
2022/03/25 13:13:56;;;;;;;20.87;12.50;;;15.30;47.00;;;;;;8425923;28;20208;-61
2022/03/25 13:18:11;;;;;;;23.03;12.93;;;15.50;34.80;;;;;;8439328;28;20225;-62
2022/03/25 13:22:17;;;;;;;20.43;12.67;;;15.40;28.40;;;;;;8400908;28;20256;-60
2022/03/25 13:26:18;;;;;;;22.63;13.23;;;15.30;19.90;;;;;;8421878;28;20281;-61
2022/03/25 13:30:19;;;;;;;20.07;12.80;;;15.40;20.80;;;;;;8424152;28;20204;-61
2022/03/25 13:34:20;;;;;;;21.73;14.40;;;15.40;16.30;;;;;;8399653;28;20204;-62
2022/03/25 13:38:47;;;;;;;21.87;14.33;;;15.60;7.20;;;;;;8430639;28;20274;-61
2022/03/25 13:42:56;;;;;;;23.83;13.50;;;15.50;15.50;;;;;;8438682;28;20196;-62
2022/03/25 13:47:06;;;;;;;21.13;13.70;;;15.50;21.00;;;;;;8427813;28;20290;-60
2022/03/25 13:51:40;;;;;;;23.13;12.37;;;15.20;6.50;;;;;;8431308;28;20206;-61
2022/03/25 13:55:42;;;;;;;25.27;13.37;;;15.10;3.60;;;;;;8426464;28;20239;-63
2022/03/25 13:59:43;;;;;;;19.87;12.60;;;15.20;13.30;;;;;;8436370;28;20215;-63
2022/03/25 14:03:45;;;;;;;22.87;13.97;;;15.40;6.60;;;;;;8439724;28;20203;-61
2022/03/25 14:07:46;;;;;;;19.00;12.03;;;15.60;9.10;;;;;;8440811;28;20207;-63
2022/03/25 14:11:47;;;;;;;20.73;13.73;;;15.60;1.00;;;;;;8436541;28;20301;-62
2022/03/25 14:15:48;;;;;;;31.20;18.03;;;15.40;1.00;;;;;;8446027;28;20203;-61
2022/03/25 14:20:18;;;;;;;22.03;13.73;;;15.40;1.00;;;;;;8441860;28;20294;-62
2022/03/25 14:24:30;;;;;;;31.60;20.00;;;15.60;1.00;;;;;;8427915;28;20365;-60
2022/03/25 14:28:31;;;;;;;22.07;14.13;;;15.70;1.00;;;;;;8419486;28;20212;-61
2022/03/25 14:32:32;;;;;;;26.27;17.13;;;15.70;1.00;;;;;;8433204;28;20242;-60
2022/03/25 14:36:33;;;;;;;25.73;16.80;;;15.80;12.20;;;;;;8426245;28;20687;-62
2022/03/25 14:40:34;;;;;;;25.10;16.43;;;15.70;17.40;;;;;;8416559;28;20208;-62
2022/03/25 14:44:35;;;;;;;24.10;15.07;;;15.50;15.10;;;;;;8440009;28;20243;-61
2022/03/25 14:48:36;;;;;;;25.33;14.33;;;15.40;11.40;;;;;;8417918;28;20302;-61
2022/03/25 14:52:39;;;;;;;26.23;13.47;;;15.40;1.00;;;;;;8452389;28;20200;-61
2022/03/25 14:56:41;;;;;;;19.07;11.30;;;15.20;1.00;;;;;;8418446;28;20200;-61
2022/03/25 15:00:42;;;;;;;22.23;11.03;;;15.00;1.00;;;;;;8425879;28;20253;-65
2022/03/25 15:04:43;;;;;;;19.03;10.60;;;15.00;1.00;;;;;;8418873;28;20227;-61
2022/03/25 15:08:44;;;;;;;18.40;9.97;;;15.00;1.00;;;;;;8436505;28;20196;-61
2022/03/25 15:12:48;;;;;;;24.53;13.37;;;15.10;1.00;;;;;;8413392;28;20211;-62
2022/03/25 15:16:49;;;;;;;35.77;19.47;;;15.00;1.00;;;;;;8423479;28;20514;-63
2022/03/25 15:20:49;;;;;;;26.07;12.57;;;15.10;1.00;;;;;;8401417;28;20713;-61
2022/03/25 15:24:50;;;;;;;19.40;12.47;;;15.10;1.00;;;;;;8400957;28;20238;-62
2022/03/25 15:28:51;;;;;;;20.23;13.17;;;15.10;1.00;;;;;;8428672;28;20227;-64
2022/03/25 15:37:11;;;;;;;22.40;13.43;;;15.00;1.00;;;;;;8429908;28;20337;-61
2022/03/25 15:41:12;;;;;;;23.07;13.23;;;14.90;1.00;;;;;;8430149;28;20200;-61
2022/03/25 15:45:13;;;;;;;19.27;11.73;;;14.80;1.00;;;;;;8432664;28;20228;-64
2022/03/25 15:49:14;;;;;;;17.50;11.10;;;14.70;1.00;;;;;;8414275;28;20211;-61
2022/03/25 15:53:15;;;;;;;13.73;8.80;;;14.70;1.00;;;;;;8432813;28;20200;-61
2022/03/25 15:57:18;;;;;;;14.17;9.47;;;14.70;1.00;;;;;;8405920;28;20225;-61
2022/03/25 16:01:19;;;;;;;13.87;9.33;;;14.60;1.00;;;;;;8421686;28;20310;-61
2022/03/25 16:05:20;;;;;;;15.33;9.90;;;14.50;1.00;;;;;;8420914;28;20225;-61
2022/03/25 16:09:20;;;;;;;15.10;9.27;;;14.40;1.00;;;;;;8424256;28;20200;-62
2022/03/25 16:13:21;;;;;;;16.47;9.67;;;14.20;1.00;;;;;;8408789;28;20208;-61
2022/03/25 16:17:22;;;;;;;16.07;9.43;;;14.10;1.00;;;;;;8408571;28;20267;-61
2022/03/25 16:21:23;;;;;;;13.97;8.83;;;14.00;1.00;;;;;;8409268;28;20227;-61
2022/03/25 16:25:25;;;;;;;16.00;8.77;;;13.90;12.10;;;;;;8402627;28;20243;-62
2022/03/25 16:29:26;;;;;;;17.03;9.10;;;13.90;8.50;;;;;;8415200;28;20314;-62
2022/03/25 16:33:28;;;;;;;15.73;9.13;;;13.80;18.10;;;;;;8398714;28;20524;-62
2022/03/25 16:37:29;;;;;;;18.73;11.37;;;13.70;17.20;;;;;;8415692;28;20260;-61
2022/03/25 16:41:30;;;;;;;18.30;10.40;;;13.60;22.80;;;;;;8400654;28;20210;-64
2022/03/25 16:45:31;;;;;;;15.53;9.03;;;13.50;27.90;;;;;;8413468;28;20314;-62
2022/03/25 16:49:32;;;;;;;10.03;7.40;;;13.30;50.70;;;;;;8406434;28;20215;-62
2022/03/25 16:53:33;;;;;;;9.03;5.47;;;12.90;95.80;;;;;;8432756;28;20230;-62
2022/03/25 16:57:34;;;;;;;8.87;5.33;;;12.50;99.90;;;;;;8419354;28;20212;-62
2022/03/25 17:01:35;;;;;;;6.77;4.57;;;12.20;99.90;;;;;;8404110;28;20211;-63
2022/03/25 17:05:38;;;;;;;8.83;5.03;;;11.80;99.90;;;;;;8417177;28;20259;-63
2022/03/25 17:09:39;;;;;;;7.83;4.63;;;11.40;99.90;;;;;;8424488;28;20268;-61
2022/03/25 17:13:41;;;;;;;7.23;4.80;;;11.00;99.90;;;;;;8443333;28;20403;-61
2022/03/25 17:17:42;;;;;;;7.53;5.30;;;10.60;99.90;;;;;;8433414;28;20330;-62
2022/03/25 17:21:43;;;;;;;6.83;4.63;;;10.30;99.90;;;;;;8397527;28;20197;-63
2022/03/25 17:25:44;;;;;;;8.17;5.30;;;10.00;99.90;;;;;;8399646;28;20228;-62
2022/03/25 17:29:45;;;;;;;8.73;5.20;;;9.60;1.00;;;;;;8430104;28;20199;-62
2022/03/25 17:33:45;;;;;;;7.07;5.17;;;9.30;1.00;;;;;;8397558;28;20232;-62
2022/03/25 17:37:47;;;;;;;10.37;5.20;;;9.00;1.00;;;;;;8416908;28;20256;-61
2022/03/25 17:41:48;;;;;;;8.50;5.20;;;8.70;1.00;;;;;;8431298;28;20230;-63
2022/03/25 17:45:51;;;;;;;7.83;4.97;;;8.50;41.80;;;;;;8430117;28;20234;-64
2022/03/25 17:49:52;;;;;;;7.27;5.27;;;8.20;99.90;;;;;;8409778;28;20208;-62
2022/03/25 17:53:53;;;;;;;10.67;7.00;;;8.10;99.90;;;;;;8446370;28;20288;-62
2022/03/25 17:57:54;;;;;;;12.77;8.57;;;7.90;99.90;;;;;;8424407;28;20204;-62
2022/03/25 18:01:55;;;;;;;11.90;7.53;;;7.80;99.90;;;;;;8421556;28;20224;-62
2022/03/25 18:05:56;;;;;;;7.93;5.80;;;7.70;99.90;;;;;;8419816;28;20208;-62
2022/03/25 18:09:57;;;;;;;8.47;5.43;;;7.70;99.90;;;;;;8417399;28;20207;-62
2022/03/25 18:13:58;;;;;;;6.90;4.80;;;7.60;99.90;;;;;;8410120;28;20200;-63
2022/03/25 18:17:58;;;;;;;12.97;7.60;;;7.60;99.90;;;;;;8420746;28;20207;-62
2022/03/25 18:21:59;;;;;;;9.63;6.53;;;7.60;99.90;;;;;;8397186;28;20204;-63
2022/03/25 18:26:00;;;;;;;11.37;6.77;;;7.60;99.90;;;;;;8420125;28;20208;-61
2022/03/25 18:30:01;;;;;;;9.30;5.63;;;7.50;99.90;;;;;;8426352;28;20214;-61
2022/03/25 18:34:05;;;;;;;7.77;5.20;;;7.50;1.00;;;;;;8398525;28;20828;-61
2022/03/25 18:38:07;;;;;;;11.03;5.43;;;7.50;1.00;;;;;;8420343;28;20200;-62
2022/03/25 18:42:09;;;;;;;6.43;4.90;;;7.40;1.00;;;;;;8405507;28;20208;-61
2022/03/25 18:46:10;;;;;;;10.53;5.90;;;7.40;1.00;;;;;;8432474;28;20216;-64
2022/03/25 18:50:10;;;;;;;11.97;6.17;;;7.30;1.00;;;;;;8414713;28;20209;-61
2022/03/25 18:54:11;;;;;;;9.70;6.23;;;7.20;1.00;;;;;;8449226;28;20256;-63
2022/03/25 18:58:14;;;;;;;8.53;5.50;;;7.20;1.00;;;;;;8410330;28;20496;-62
2022/03/25 19:02:17;;;;;;;13.07;6.97;;;7.00;1.00;;;;;;8402102;28;20215;-61
2022/03/25 19:06:18;;;;;;;14.77;7.80;;;6.90;1.00;;;;;;8411801;28;20220;-61
2022/03/25 19:10:19;;;;;;;11.87;6.33;;;6.70;30.70;;;;;;8433548;28;20211;-62
2022/03/25 19:14:20;;;;;;;8.97;5.80;;;6.60;99.90;;;;;;8441184;28;20200;-61
2022/03/25 19:18:21;;;;;;;13.73;5.70;;;6.40;99.90;;;;;;8444956;28;20207;-62
2022/03/25 19:22:22;;;;;;;14.20;7.63;;;6.30;99.90;;;;;;8426247;28;20200;-63
2022/03/25 19:26:23;;;;;;;10.97;7.03;;;6.20;99.90;;;;;;8427101;28;20226;-61
2022/03/25 19:30:24;;;;;;;9.27;6.37;;;6.10;99.90;;;;;;8409810;28;20298;-60
2022/03/25 19:34:25;;;;;;;11.17;7.17;;;6.00;1.00;;;;;;8399988;28;20253;-62
2022/03/25 19:38:26;;;;;;;16.27;9.03;;;6.00;1.00;;;;;;8417537;28;20203;-62
2022/03/25 19:42:28;;;;;;;15.30;7.77;;;5.90;13.10;;;;;;8426637;28;20194;-61
2022/03/25 19:46:29;;;;;;;17.70;7.93;;;5.80;73.10;;;;;;8419488;28;20217;-61
2022/03/25 19:50:30;;;;;;;15.83;7.60;;;5.70;99.90;;;;;;8419823;28;20305;-64
2022/03/25 19:54:31;;;;;;;10.67;7.13;;;5.60;99.90;;;;;;8401222;28;20207;-62
2022/03/25 19:58:34;;;;;;;11.97;6.07;;;5.60;99.90;;;;;;8427919;28;20291;-62
2022/03/25 20:02:38;;;;;;;10.87;6.57;;;5.50;1.00;;;;;;8429100;28;20238;-61
2022/03/25 20:06:39;;;;;;;12.93;7.47;;;5.40;1.00;;;;;;8435144;28;20229;-62
2022/03/25 20:10:41;;;;;;;10.23;6.70;;;5.40;99.90;;;;;;8433397;28;20307;-62
2022/03/25 20:14:43;;;;;;;13.13;7.43;;;5.40;99.90;;;;;;8425082;28;20228;-60
2022/03/25 20:18:44;;;;;;;12.97;7.73;;;5.30;99.90;;;;;;8400708;28;20202;-61
2022/03/25 20:22:44;;;;;;;13.07;7.63;;;5.30;99.90;;;;;;8426366;28;20564;-59
2022/03/25 20:26:46;;;;;;;12.07;7.10;;;5.10;99.90;;;;;;8435156;28;20222;-60
2022/03/25 20:30:47;;;;;;;13.30;7.30;;;5.00;1.00;;;;;;8418645;28;20196;-67
2022/03/25 20:34:48;;;;;;;15.50;8.30;;;4.90;76.00;;;;;;8425554;28;20218;-61
2022/03/25 20:38:49;;;;;;;14.60;7.67;;;4.90;99.90;;;;;;8432332;28;20202;-61
2022/03/25 20:42:52;;;;;;;15.43;8.57;;;4.80;99.90;;;;;;8418974;28;20208;-61
2022/03/25 20:46:53;;;;;;;14.07;7.63;;;4.70;1.00;;;;;;8404128;28;20224;-63
2022/03/25 20:50:54;;;;;;;15.00;8.93;;;4.60;1.00;;;;;;8437337;28;20197;-60
2022/03/25 20:54:55;;;;;;;15.63;9.53;;;4.60;99.90;;;;;;8430236;28;20298;-61